createdAt,value
2022-08-25T00:02:00.139Z,8.03
2022-08-25T00:04:29.585Z,7.73
2022-08-25T00:07:02.227Z,7.87
2022-08-25T00:09:31.455Z,8.00
2022-08-25T00:11:59.209Z,8.03
2022-08-25T00:14:32.721Z,8.17
2022-08-25T00:17:00.453Z,8.50
2022-08-25T00:19:32.635Z,8.30
2022-08-25T00:22:00.849Z,8.57
2022-08-25T00:24:28.077Z,7.77
2022-08-25T00:26:57.099Z,9.40
2022-08-25T00:29:26.339Z,8.20
2022-08-25T00:31:54.931Z,8.50
2022-08-25T00:34:30.371Z,8.53
2022-08-25T00:36:57.405Z,8.77
2022-08-25T00:39:25.525Z,9.63
2022-08-25T00:41:57.038Z,10.20
2022-08-25T00:44:27.327Z,8.70
2022-08-25T00:46:57.885Z,8.70
2022-08-25T00:49:40.452Z,7.53
2022-08-25T00:52:29.991Z,7.50
2022-08-25T00:55:07.886Z,6.00
2022-08-25T00:57:42.222Z,7.10
2022-08-25T01:00:23.420Z,7.57
2022-08-25T01:02:50.665Z,7.10
2022-08-25T01:05:19.307Z,7.03
2022-08-25T01:07:46.891Z,6.50
2022-08-25T01:10:14.143Z,7.10
2022-08-25T01:12:41.333Z,7.43
2022-08-25T01:15:11.829Z,7.30
2022-08-25T01:17:49.240Z,6.47
2022-08-25T01:20:19.823Z,7.27
2022-08-25T01:22:50.876Z,5.90
2022-08-25T01:25:57.318Z,6.90
2022-08-25T01:28:24.277Z,6.70
2022-08-25T01:30:52.469Z,7.20
2022-08-25T01:33:19.623Z,8.10
2022-08-25T01:35:47.846Z,8.47
2022-08-25T01:38:15.388Z,7.93
2022-08-25T01:40:43.091Z,7.87
2022-08-25T01:43:16.931Z,7.33
2022-08-25T01:45:47.412Z,7.70
2022-08-25T01:48:16.592Z,7.37
2022-08-25T01:50:44.183Z,8.03
2022-08-25T01:53:24.495Z,7.63
2022-08-25T01:56:02.717Z,7.30
2022-08-25T01:58:37.111Z,7.60
2022-08-25T02:01:09.318Z,5.87
2022-08-25T02:03:42.351Z,6.73
2022-08-25T02:06:12.779Z,7.07
2022-08-25T02:08:40.011Z,6.80
2022-08-25T02:11:11.962Z,7.10
2022-08-25T02:13:40.831Z,7.00
2022-08-25T02:16:09.736Z,6.50
2022-08-25T02:18:36.865Z,6.30
2022-08-25T02:21:04.044Z,6.57
2022-08-25T02:23:30.959Z,6.40
2022-08-25T02:25:58.030Z,6.97
2022-08-25T02:28:26.060Z,7.50
2022-08-25T02:30:53.169Z,7.40
2022-08-25T02:33:25.964Z,7.40
2022-08-25T02:35:52.855Z,7.50
2022-08-25T02:38:19.775Z,7.17
2022-08-25T02:40:46.729Z,8.20
2022-08-25T02:43:13.641Z,7.33
2022-08-25T02:45:41.604Z,6.47
2022-08-25T02:48:08.570Z,7.10
2022-08-25T02:50:35.507Z,7.03
2022-08-25T02:53:02.562Z,8.00
2022-08-25T02:55:29.527Z,7.13
2022-08-25T02:58:00.563Z,7.03
2022-08-25T03:00:27.618Z,7.40
2022-08-25T03:02:54.514Z,7.43
2022-08-25T03:05:21.498Z,6.80
2022-08-25T03:07:48.483Z,7.30
2022-08-25T03:10:18.698Z,7.13
2022-08-25T03:12:46.429Z,7.30
2022-08-25T03:15:16.795Z,7.60
2022-08-25T03:17:46.139Z,7.97
2022-08-25T03:20:13.586Z,7.17
2022-08-25T03:22:40.532Z,7.50
2022-08-25T03:25:26.815Z,7.70
2022-08-25T03:27:53.719Z,9.20
2022-08-25T03:30:21.338Z,8.60
2022-08-25T03:32:48.337Z,9.83
2022-08-25T03:35:15.479Z,9.97
2022-08-25T03:37:42.480Z,9.53
2022-08-25T03:40:15.213Z,8.77
2022-08-25T03:42:47.121Z,11.40
2022-08-25T03:45:16.780Z,11.00
2022-08-25T03:47:47.815Z,10.83
2022-08-25T03:50:16.966Z,10.20
2022-08-25T03:52:44.192Z,10.40
2022-08-25T03:55:13.713Z,11.93
2022-08-25T03:57:40.664Z,9.73
2022-08-25T04:00:10.451Z,11.37
2022-08-25T04:02:41.160Z,10.80
2022-08-25T04:05:09.357Z,13.40
2022-08-25T04:07:36.508Z,11.83
2022-08-25T04:10:06.203Z,12.37
2022-08-25T04:12:33.156Z,12.10
2022-08-25T04:15:00.071Z,12.03
2022-08-25T04:17:27.197Z,11.13
2022-08-25T04:19:54.260Z,11.57
2022-08-25T04:22:21.160Z,11.03
2022-08-25T04:24:48.069Z,12.00
2022-08-25T04:27:15.425Z,11.17
2022-08-25T04:29:42.785Z,11.27
2022-08-25T04:32:09.823Z,12.80
2022-08-25T04:34:36.824Z,10.80
2022-08-25T04:37:06.505Z,10.40
2022-08-25T04:39:33.641Z,12.30
2022-08-25T04:42:01.347Z,11.80
2022-08-25T04:44:30.089Z,10.27
2022-08-25T04:46:57.264Z,10.07
2022-08-25T04:49:24.186Z,10.90
2022-08-25T04:51:51.080Z,10.50
2022-08-25T04:54:21.663Z,10.43
2022-08-25T04:56:50.279Z,9.93
2022-08-25T04:59:21.650Z,9.77
2022-08-25T05:01:50.114Z,9.37
2022-08-25T05:04:28.212Z,9.77
2022-08-25T05:06:57.032Z,9.60
2022-08-25T05:09:25.252Z,8.70
2022-08-25T05:11:53.017Z,11.30
2022-08-25T05:14:23.183Z,9.50
2022-08-25T05:16:55.608Z,10.70
2022-08-25T05:19:24.109Z,12.10
2022-08-25T05:21:52.103Z,9.40
2022-08-25T05:24:20.280Z,10.10
2022-08-25T05:26:47.312Z,9.47
2022-08-25T05:29:14.450Z,9.60
2022-08-25T05:31:44.851Z,10.00
2022-08-25T05:34:14.321Z,9.83
2022-08-25T05:36:43.433Z,10.40
2022-08-25T05:39:11.278Z,10.07
2022-08-25T05:41:38.759Z,10.90
2022-08-25T05:44:06.253Z,8.70
2022-08-25T05:46:33.158Z,12.00
2022-08-25T05:49:00.402Z,11.87
2022-08-25T05:51:27.768Z,11.00
2022-08-25T05:53:54.753Z,11.87
2022-08-25T05:56:21.848Z,11.50
2022-08-25T05:58:50.229Z,11.07
2022-08-25T06:01:45.352Z,11.33
2022-08-25T06:04:17.621Z,10.70
2022-08-25T06:06:44.567Z,10.10
2022-08-25T06:09:11.829Z,11.40
2022-08-25T06:11:40.754Z,10.10
2022-08-25T06:14:09.960Z,10.57
2022-08-25T06:16:38.966Z,10.60
2022-08-25T06:19:07.798Z,10.60
2022-08-25T06:21:35.256Z,8.93
2022-08-25T06:24:02.432Z,12.13
2022-08-25T06:26:29.402Z,9.60
2022-08-25T06:28:56.308Z,9.40
2022-08-25T06:31:23.896Z,11.00
2022-08-25T06:33:51.519Z,12.40
2022-08-25T06:36:19.260Z,11.50
2022-08-25T06:38:47.578Z,11.30
2022-08-25T06:41:16.417Z,12.23
2022-08-25T06:43:47.957Z,11.87
2022-08-25T06:46:23.214Z,9.50
2022-08-25T06:49:03.052Z,9.40
2022-08-25T06:51:29.992Z,9.47
2022-08-25T06:53:56.887Z,7.67
2022-08-25T06:56:24.066Z,8.90
2022-08-25T06:58:51.014Z,8.63
2022-08-25T07:01:26.889Z,7.50
2022-08-25T07:03:59.899Z,8.93
2022-08-25T07:06:31.034Z,8.17
2022-08-25T07:08:58.573Z,9.17
2022-08-25T07:11:26.451Z,9.63
2022-08-25T07:13:53.438Z,8.70
2022-08-25T07:16:21.149Z,9.40
2022-08-25T07:18:48.774Z,8.00
2022-08-25T07:21:16.912Z,8.83
2022-08-25T07:23:44.437Z,8.33
2022-08-25T07:26:37.189Z,7.93
2022-08-25T07:29:14.754Z,8.83
2022-08-25T07:31:42.307Z,8.27
2022-08-25T07:34:28.501Z,8.00
2022-08-25T07:36:56.903Z,8.10
2022-08-25T07:39:25.423Z,6.70
2022-08-25T07:41:53.790Z,8.80
2022-08-25T07:44:22.615Z,7.77
2022-08-25T07:46:51.466Z,7.10
2022-08-25T07:52:06.926Z,6.33
2022-08-25T07:54:37.776Z,6.77
2022-08-25T07:57:07.656Z,7.47
2022-08-25T07:59:39.358Z,6.43
2022-08-25T08:02:17.978Z,8.63
2022-08-25T08:04:50.407Z,7.27
2022-08-25T08:07:41.969Z,7.30
2022-08-25T08:13:00.704Z,6.50
2022-08-25T08:15:29.923Z,7.47
2022-08-25T08:17:58.698Z,8.00
2022-08-25T08:20:27.359Z,5.60
2022-08-25T08:22:55.488Z,6.77
2022-08-25T08:25:26.669Z,6.17
2022-08-25T08:27:55.290Z,5.77
2022-08-25T08:30:26.072Z,6.40
2022-08-25T08:33:11.481Z,6.57
2022-08-25T08:35:40.564Z,6.20
2022-08-25T08:38:14.721Z,5.83
2022-08-25T08:41:25.057Z,5.90
2022-08-25T08:44:08.160Z,4.93
2022-08-25T08:47:04.005Z,6.13
2022-08-25T08:50:06.454Z,6.27
2022-08-25T08:52:44.950Z,5.30
2022-08-25T08:55:40.888Z,6.17
2022-08-25T08:58:17.288Z,5.43
2022-08-25T09:00:52.595Z,6.70
2022-08-25T09:03:42.709Z,5.73
2022-08-25T09:06:26.067Z,5.20
2022-08-25T09:08:55.572Z,6.57
2022-08-25T09:11:53.309Z,5.27
2022-08-25T09:14:44.315Z,5.80
2022-08-25T09:17:52.686Z,5.83
2022-08-25T09:20:55.107Z,5.07
2022-08-25T09:23:42.998Z,5.63
2022-08-25T09:26:53.160Z,5.60
2022-08-25T09:29:25.421Z,5.70
2022-08-25T09:31:58.177Z,5.53
2022-08-25T09:34:32.877Z,5.50
2022-08-25T09:37:00.827Z,5.30
2022-08-25T09:39:27.983Z,5.77
2022-08-25T09:42:00.392Z,5.40
2022-08-25T09:44:43.599Z,5.73
2022-08-25T09:47:25.620Z,4.63
2022-08-25T09:50:01.622Z,5.93
2022-08-25T09:52:41.250Z,5.60
2022-08-25T09:55:08.446Z,5.10
2022-08-25T09:57:49.216Z,5.77
2022-08-25T10:00:34.523Z,6.13
2022-08-25T10:03:06.012Z,5.20
2022-08-25T10:05:57.355Z,4.80
2022-08-25T10:08:39.499Z,4.90
2022-08-25T10:11:15.217Z,6.13
2022-08-25T10:13:47.235Z,4.43
2022-08-25T10:16:27.041Z,4.83
2022-08-25T10:19:11.267Z,5.63
2022-08-25T10:21:42.148Z,5.40
2022-08-25T10:24:12.323Z,5.20
2022-08-25T10:27:30.291Z,4.83
2022-08-25T10:30:24.058Z,4.70
2022-08-25T10:33:10.107Z,5.20
2022-08-25T10:36:12.758Z,4.40
2022-08-25T10:38:55.394Z,5.10
2022-08-25T10:41:42.210Z,6.00
2022-08-25T10:44:41.718Z,4.97
2022-08-25T10:47:33.296Z,4.93
2022-08-25T10:50:29.320Z,5.90
2022-08-25T10:53:23.685Z,5.90
2022-08-25T10:56:07.310Z,5.00
2022-08-25T10:59:09.220Z,4.70
2022-08-25T11:02:20.054Z,4.77
2022-08-25T11:05:00.217Z,5.10
2022-08-25T11:07:38.265Z,5.30
2022-08-25T11:10:14.429Z,5.10
2022-08-25T11:12:47.089Z,5.43
2022-08-25T11:15:24.171Z,5.20
2022-08-25T11:18:03.390Z,5.07
2022-08-25T11:20:41.498Z,4.73
2022-08-25T11:23:32.291Z,5.30
2022-08-25T11:26:11.008Z,5.00
2022-08-25T11:29:05.259Z,5.30
2022-08-25T11:31:45.840Z,4.63
2022-08-25T11:34:15.591Z,5.03
2022-08-25T11:37:07.851Z,4.40
2022-08-25T11:40:02.907Z,5.90
2022-08-25T11:43:08.784Z,5.00
2022-08-25T11:45:54.563Z,4.60
2022-08-25T11:49:17.989Z,4.23
2022-08-25T11:51:50.831Z,4.90
2022-08-25T11:54:37.205Z,4.30
2022-08-25T11:57:10.536Z,4.13
2022-08-25T11:59:53.048Z,4.20
2022-08-25T12:02:51.157Z,4.90
2022-08-25T12:05:24.162Z,4.13
2022-08-25T12:08:12.485Z,4.40
2022-08-25T12:11:10.879Z,3.90
2022-08-25T12:13:49.047Z,4.50
2022-08-25T12:16:35.379Z,4.37
2022-08-25T12:19:28.938Z,4.80
2022-08-25T12:22:03.235Z,4.70
2022-08-25T12:24:47.703Z,5.40
2022-08-25T12:27:52.372Z,4.43
2022-08-25T12:30:50.535Z,4.30
2022-08-25T12:34:05.981Z,4.50
2022-08-25T12:36:35.140Z,4.93
2022-08-25T12:39:24.481Z,4.93
2022-08-25T12:42:03.003Z,5.43
2022-08-25T12:44:44.402Z,5.57
2022-08-25T12:47:19.514Z,4.60
2022-08-25T12:49:50.893Z,4.50
2022-08-25T12:52:21.870Z,4.40
2022-08-25T12:54:59.601Z,4.63
2022-08-25T12:57:49.870Z,4.90
2022-08-25T13:00:21.296Z,5.07
2022-08-25T13:03:16.407Z,4.67
2022-08-25T13:06:25.781Z,5.03
2022-08-25T13:09:16.352Z,4.90
2022-08-25T13:12:27.276Z,4.57
2022-08-25T13:14:58.022Z,5.50
2022-08-25T13:17:34.395Z,5.00
2022-08-25T13:20:23.392Z,5.13
2022-08-25T13:22:57.447Z,5.30
2022-08-25T13:25:32.122Z,4.70
2022-08-25T13:28:04.119Z,4.57
2022-08-25T13:30:36.673Z,4.60
2022-08-25T13:33:20.261Z,5.73
2022-08-25T13:36:12.332Z,5.17
2022-08-25T13:38:39.350Z,4.90
2022-08-25T13:41:09.351Z,4.37
2022-08-25T13:43:38.726Z,5.30
2022-08-25T13:46:06.496Z,4.60
2022-08-25T13:48:37.982Z,5.03
2022-08-25T13:51:18.777Z,5.60
2022-08-25T13:54:00.830Z,4.93
2022-08-25T13:56:41.155Z,4.77
2022-08-25T13:59:20.982Z,6.10
2022-08-25T14:01:50.236Z,6.03
2022-08-25T14:04:33.463Z,4.93
2022-08-25T14:07:34.764Z,6.10
2022-08-25T14:10:08.719Z,4.67
2022-08-25T14:12:45.382Z,4.60
2022-08-25T14:15:18.320Z,5.00
2022-08-25T14:18:19.674Z,5.20
2022-08-25T14:20:50.996Z,4.60
2022-08-25T14:23:27.660Z,4.80
2022-08-25T14:25:57.692Z,5.30
2022-08-25T14:28:31.954Z,4.90
2022-08-25T14:31:16.485Z,5.77
2022-08-25T14:33:57.185Z,5.30
2022-08-25T14:36:24.778Z,5.67
2022-08-25T14:38:54.635Z,4.97
2022-08-25T14:41:23.945Z,5.40
2022-08-25T14:43:51.104Z,4.63
2022-08-25T14:46:28.237Z,4.77
2022-08-25T14:49:00.620Z,5.70
2022-08-25T14:51:29.868Z,5.50
2022-08-25T14:54:03.637Z,5.17
2022-08-25T14:56:32.112Z,5.00
2022-08-25T14:58:59.808Z,4.90
2022-08-25T15:01:28.903Z,5.17
2022-08-25T15:04:08.786Z,5.07
2022-08-25T15:06:36.983Z,5.70
2022-08-25T15:09:10.984Z,4.53
2022-08-25T15:11:54.642Z,5.00
2022-08-25T15:14:28.909Z,5.90
2022-08-25T15:17:00.564Z,5.13
2022-08-25T15:19:28.411Z,5.40
2022-08-25T15:21:58.040Z,5.47
2022-08-25T15:24:28.223Z,4.80
2022-08-25T15:27:07.229Z,5.03
2022-08-25T15:29:37.344Z,4.23
2022-08-25T15:32:07.214Z,5.80
2022-08-25T15:34:35.457Z,4.77
2022-08-25T15:37:10.599Z,4.87
2022-08-25T15:39:39.410Z,4.40
2022-08-25T15:42:06.547Z,4.47
2022-08-25T15:44:33.732Z,5.17
2022-08-25T15:47:02.734Z,5.50
2022-08-25T15:49:31.306Z,5.83
2022-08-25T15:51:59.236Z,5.33
2022-08-25T15:54:27.497Z,4.77
2022-08-25T15:56:56.945Z,4.10
2022-08-25T15:59:25.461Z,5.57
2022-08-25T16:01:53.627Z,5.70
2022-08-25T16:04:23.404Z,4.93
2022-08-25T16:06:51.949Z,5.67
2022-08-25T16:09:22.976Z,4.53
2022-08-25T16:11:56.786Z,5.87
2022-08-25T16:14:25.755Z,4.40
2022-08-25T16:16:58.367Z,4.40
2022-08-25T16:19:29.268Z,4.87
2022-08-25T16:21:56.656Z,4.90
2022-08-25T16:24:23.640Z,5.90
2022-08-25T16:26:51.933Z,4.67
2022-08-25T16:29:19.976Z,5.40
2022-08-25T16:31:54.957Z,5.00
2022-08-25T16:34:24.578Z,5.10
2022-08-25T16:36:55.542Z,5.30
2022-08-25T16:39:24.000Z,5.00
2022-08-25T16:41:52.260Z,6.17
2022-08-25T16:44:22.519Z,4.90
2022-08-25T16:46:54.194Z,5.50
2022-08-25T16:49:22.038Z,5.23
2022-08-25T16:51:57.220Z,4.90
2022-08-25T16:54:44.964Z,5.13
2022-08-25T16:57:12.364Z,4.93
2022-08-25T16:59:39.416Z,5.70
2022-08-25T17:02:06.698Z,4.43
2022-08-25T17:04:33.734Z,4.73
2022-08-25T17:07:01.718Z,5.43
2022-08-25T17:09:30.065Z,5.73
2022-08-25T17:11:57.319Z,4.83
2022-08-25T17:14:24.844Z,4.63
2022-08-25T17:16:55.028Z,4.40
2022-08-25T17:19:24.831Z,4.90
2022-08-25T17:21:54.389Z,5.00
2022-08-25T17:24:22.498Z,4.77
2022-08-25T17:26:56.704Z,5.13
2022-08-25T17:29:23.648Z,4.50
2022-08-25T17:31:51.605Z,4.40
2022-08-25T17:34:22.953Z,5.70
2022-08-25T17:36:51.084Z,4.50
2022-08-25T17:39:19.691Z,4.73
2022-08-25T17:41:50.589Z,4.50
2022-08-25T17:44:18.095Z,5.03
2022-08-25T17:46:47.470Z,4.97
2022-08-25T17:49:16.247Z,4.77
2022-08-25T17:51:43.332Z,6.00
2022-08-25T17:54:12.237Z,5.67
2022-08-25T17:56:39.514Z,6.10
2022-08-25T17:59:07.480Z,6.00
2022-08-25T18:01:40.263Z,6.20
2022-08-25T18:04:08.143Z,5.90
2022-08-25T18:06:45.454Z,5.53
2022-08-25T18:09:12.768Z,5.70
2022-08-25T18:11:39.676Z,5.60
2022-08-25T18:14:06.596Z,5.80
2022-08-25T18:16:33.517Z,5.57
2022-08-25T18:19:01.758Z,6.40
2022-08-25T18:21:30.531Z,6.10
2022-08-25T18:23:58.765Z,5.90
2022-08-25T18:26:26.239Z,6.13
2022-08-25T18:28:53.333Z,6.10
2022-08-25T18:31:20.390Z,6.67
2022-08-25T18:33:47.548Z,7.57
2022-08-25T18:36:20.376Z,6.10
2022-08-25T18:39:07.341Z,6.27
2022-08-25T18:41:40.103Z,6.77
2022-08-25T18:44:08.139Z,6.63
2022-08-25T18:46:37.565Z,6.13
2022-08-25T18:49:04.927Z,6.60
2022-08-25T18:51:33.100Z,6.77
2022-08-25T18:54:01.089Z,6.70
2022-08-25T18:56:29.033Z,7.23
2022-08-25T18:58:57.147Z,6.30
2022-08-25T19:01:24.564Z,6.73
2022-08-25T19:03:51.797Z,7.00
2022-08-25T19:06:19.463Z,6.50
2022-08-25T19:08:48.228Z,6.80
2022-08-25T19:11:16.534Z,7.43
2022-08-25T19:13:44.778Z,6.60
2022-08-25T19:16:20.587Z,7.00
2022-08-25T19:18:49.031Z,7.00
2022-08-25T19:21:22.563Z,5.93
2022-08-25T19:23:50.892Z,7.03
2022-08-25T19:26:19.296Z,6.33
2022-08-25T19:28:50.426Z,6.90
2022-08-25T19:31:20.270Z,6.17
2022-08-25T19:33:50.533Z,7.37
2022-08-25T19:36:22.947Z,7.07
2022-08-25T19:38:52.342Z,5.87
2022-08-25T19:41:22.072Z,6.40
2022-08-25T19:43:56.739Z,6.10
2022-08-25T19:46:35.807Z,7.00
2022-08-25T19:49:12.899Z,6.80
2022-08-25T19:51:44.723Z,6.20
2022-08-25T19:54:20.402Z,6.80
2022-08-25T19:56:55.194Z,7.10
2022-08-25T19:59:40.725Z,6.13
2022-08-25T20:02:16.182Z,7.23
2022-08-25T20:04:50.245Z,6.30
2022-08-25T20:07:21.174Z,6.00
2022-08-25T20:09:48.610Z,6.73
2022-08-25T20:12:16.910Z,6.57
2022-08-25T20:14:44.768Z,7.33
2022-08-25T20:17:14.495Z,6.80
2022-08-25T20:19:54.061Z,7.00
2022-08-25T20:22:25.840Z,6.90
2022-08-25T20:24:55.813Z,6.57
2022-08-25T20:27:33.440Z,7.70
2022-08-25T20:30:02.795Z,7.30
2022-08-25T20:32:32.604Z,6.70
2022-08-25T20:35:00.913Z,6.27
2022-08-25T20:37:27.875Z,6.90
2022-08-25T20:39:55.002Z,6.20
2022-08-25T20:42:22.122Z,7.33
2022-08-25T20:44:49.078Z,7.07
2022-08-25T20:47:16.044Z,7.03
2022-08-25T20:49:47.600Z,7.50
2022-08-25T20:52:15.660Z,5.97
2022-08-25T20:54:47.039Z,7.53
2022-08-25T20:57:25.917Z,6.47
2022-08-25T20:59:54.713Z,7.23
2022-08-25T21:02:23.066Z,6.53
2022-08-25T21:04:50.630Z,6.90
2022-08-25T21:07:18.522Z,6.83
2022-08-25T21:09:45.716Z,7.00
2022-08-25T21:12:12.827Z,6.70
2022-08-25T21:14:41.709Z,6.87
2022-08-25T21:17:12.614Z,7.00
2022-08-25T21:19:40.261Z,6.40
2022-08-25T21:22:10.869Z,5.43
2022-08-25T21:24:38.569Z,6.40
2022-08-25T21:27:05.628Z,7.30
2022-08-25T21:29:33.526Z,6.13
2022-08-25T21:32:00.472Z,6.57
2022-08-25T21:34:29.267Z,7.20
2022-08-25T21:36:58.383Z,7.10
2022-08-25T21:39:28.105Z,7.10
2022-08-25T21:41:56.644Z,7.00
2022-08-25T21:44:23.688Z,6.00
2022-08-25T21:46:53.995Z,6.53
2022-08-25T21:49:23.344Z,6.53
2022-08-25T21:52:01.013Z,6.30
2022-08-25T21:54:29.941Z,7.50
2022-08-25T21:57:00.580Z,6.70
2022-08-25T21:59:32.542Z,6.67
2022-08-25T22:02:04.323Z,6.53
2022-08-25T22:04:33.092Z,7.20
2022-08-25T22:07:00.860Z,6.43
2022-08-25T22:09:29.700Z,6.60
2022-08-25T22:11:57.086Z,6.70
2022-08-25T22:14:26.501Z,6.90
2022-08-25T22:16:54.888Z,6.57
2022-08-25T22:19:22.758Z,6.40
2022-08-25T22:21:51.088Z,7.07
2022-08-25T22:24:19.297Z,7.10
2022-08-25T22:26:48.462Z,6.93
2022-08-25T22:29:24.764Z,6.20
2022-08-25T22:32:00.656Z,6.63
2022-08-25T22:34:34.277Z,7.87
2022-08-25T22:37:03.875Z,6.70
2022-08-25T22:39:32.492Z,7.23
2022-08-25T22:42:02.863Z,6.93
2022-08-25T22:44:30.060Z,6.33
2022-08-25T22:46:56.961Z,6.73
2022-08-25T22:49:23.866Z,7.27
2022-08-25T22:51:51.029Z,6.60
2022-08-25T22:54:18.262Z,7.00
2022-08-25T22:56:45.764Z,7.40
2022-08-25T22:59:14.020Z,6.80
2022-08-25T23:01:44.085Z,6.63
2022-08-25T23:04:12.266Z,6.50
2022-08-25T23:06:40.638Z,6.30
2022-08-25T23:09:10.719Z,6.73
2022-08-25T23:11:39.054Z,7.30
2022-08-25T23:14:10.198Z,6.30
2022-08-25T23:16:39.603Z,7.47
2022-08-25T23:19:10.184Z,6.40
2022-08-25T23:21:56.768Z,6.27
2022-08-25T23:24:26.924Z,6.03
2022-08-25T23:26:59.178Z,7.47
2022-08-25T23:29:27.518Z,6.80
2022-08-25T23:31:54.686Z,7.37
2022-08-25T23:34:22.185Z,10.20
2022-08-25T23:36:49.198Z,8.50
2022-08-25T23:39:16.135Z,7.70
2022-08-25T23:41:43.296Z,7.20
2022-08-25T23:44:11.911Z,7.87
2022-08-25T23:46:47.306Z,8.70
2022-08-25T23:49:18.577Z,10.30
2022-08-25T23:51:49.296Z,9.63
2022-08-25T23:54:18.785Z,8.90
2022-08-25T23:56:51.929Z,9.10
2022-08-25T23:59:24.215Z,8.60
